Time;durP1;ratioP1;P1;durP2;ratioP2;P2;SDS_P1;SDS_P2;PMS_P1;PMS_P2;Temp;Humidity;BMP_temperature;BMP_pressure;BME280_temperature;BME280_humidity;BME280_pressure;Samples;Min_cycle;Max_cycle;Signal;HPM_P1;HPM_P2
2022/11/25 00:07:13;;;;;;;1999.90;999.90;;;7.10;99.90;;;;;;6690506;88;20270;-74
2022/11/25 00:17:14;;;;;;;1999.90;999.90;;;7.10;99.90;;;;;;6691868;88;20175;-75
2022/11/25 00:27:14;;;;;;;1999.90;999.90;;;7.10;99.90;;;;;;6700551;88;20383;-75
2022/11/25 00:37:15;;;;;;;1999.90;999.90;;;7.00;99.90;;;;;;6693751;88;20314;-73
2022/11/25 00:47:18;;;;;;;1999.90;999.90;;;7.00;99.90;;;;;;6698537;88;20313;-73
2022/11/25 00:57:22;;;;;;;1999.90;999.90;;;7.10;99.90;;;;;;6694253;88;20213;-73
2022/11/25 01:07:22;;;;;;;1999.90;999.90;;;7.20;99.90;;;;;;6692337;88;20260;-73
2022/11/25 01:18:04;;;;;;;1999.90;999.90;;;7.20;99.90;;;;;;6726391;77;20371;-78
2022/11/25 01:28:05;;;;;;;1999.90;999.90;;;7.30;99.90;;;;;;6735489;88;20663;-77
2022/11/25 01:38:05;;;;;;;1999.90;999.90;;;7.50;99.90;;;;;;6737544;88;20181;-77
2022/11/25 01:48:19;;;;;;;1999.90;999.90;;;7.70;99.90;;;;;;6737755;88;20636;-78
2022/11/25 01:58:32;;;;;;;1999.90;999.90;;;8.10;99.90;;;;;;6738323;88;20285;-78
2022/11/25 02:08:33;;;;;;;1999.90;999.90;;;8.20;99.90;;;;;;6733600;88;20277;-78
2022/11/25 02:18:34;;;;;;;1999.90;999.90;;;8.20;99.90;;;;;;6736729;88;20287;-78
2022/11/25 02:28:36;;;;;;;1999.90;999.90;;;8.30;99.90;;;;;;6737169;88;20485;-77
2022/11/25 02:38:41;;;;;;;1999.90;999.90;;;8.40;99.90;;;;;;6733252;88;20275;-77
2022/11/25 02:48:42;;;;;;;1999.90;999.90;;;8.50;99.90;;;;;;6730881;88;20197;-77
2022/11/25 02:58:43;;;;;;;1999.90;999.90;;;8.40;99.90;;;;;;6737323;88;20209;-78
2022/11/25 03:08:43;;;;;;;1999.90;999.90;;;8.40;99.90;;;;;;6737585;88;20181;-76
2022/11/25 03:18:44;;;;;;;1999.90;999.90;;;8.40;99.90;;;;;;6737591;88;20641;-78
2022/11/25 03:28:44;;;;;;;1999.90;999.90;;;8.40;99.90;;;;;;6736579;88;20557;-77
2022/11/25 03:38:45;;;;;;;1999.90;999.90;;;8.30;99.90;;;;;;6732890;88;20241;-77
2022/11/25 03:48:45;;;;;;;1999.90;999.90;;;8.20;99.90;;;;;;6733052;88;20323;-77
2022/11/25 03:58:46;;;;;;;1999.90;999.90;;;8.20;99.90;;;;;;6738910;88;20673;-79
2022/11/25 04:08:46;;;;;;;1999.90;999.90;;;8.20;99.90;;;;;;6740347;88;20241;-78
2022/11/25 04:18:47;;;;;;;1999.90;999.90;;;8.20;99.90;;;;;;6740844;88;20280;-78
2022/11/25 04:28:47;;;;;;;1999.90;999.90;;;8.30;99.90;;;;;;6743287;88;20176;-78
2022/11/25 04:38:48;;;;;;;1999.90;999.90;;;8.30;99.90;;;;;;6739593;88;20339;-78
2022/11/25 04:48:49;;;;;;;1999.90;999.90;;;8.30;99.90;;;;;;6735298;88;20504;-76
2022/11/25 05:09:10;;;;;;;1999.90;999.90;;;7.70;99.90;;;;;;6719799;88;20622;-77
2022/11/25 05:19:10;;;;;;;1999.90;999.90;;;7.70;99.90;;;;;;6719888;88;20235;-78
2022/11/25 05:29:11;;;;;;;1999.90;999.90;;;7.60;99.90;;;;;;6720094;88;20224;-76
2022/11/25 05:39:11;;;;;;;1999.90;999.90;;;7.60;99.90;;;;;;6718517;88;20297;-77
2022/11/25 05:49:12;;;;;;;1999.90;999.90;;;7.60;99.90;;;;;;6720288;88;20208;-77
2022/11/25 05:59:13;;;;;;;1999.90;999.90;;;7.60;99.90;;;;;;6720202;88;20209;-78
2022/11/25 06:09:13;;;;;;;1999.90;999.90;;;7.60;99.90;;;;;;6724801;88;20197;-77
2022/11/25 06:19:14;;;;;;;1999.90;999.90;;;7.60;99.90;;;;;;6722301;88;20226;-78
2022/11/25 06:29:14;;;;;;;1999.90;999.90;;;7.60;99.90;;;;;;6728479;88;20217;-77
2022/11/25 06:39:15;;;;;;;1999.90;999.90;;;7.50;99.90;;;;;;6728501;88;20718;-76
2022/11/25 06:49:16;;;;;;;1999.90;999.90;;;7.60;99.90;;;;;;6727287;88;20197;-77
2022/11/25 06:59:17;;;;;;;1999.90;999.90;;;7.50;99.90;;;;;;6734137;88;20275;-76
2022/11/25 07:09:21;;;;;;;1999.90;999.90;;;7.60;99.90;;;;;;6726700;88;20311;-76
2022/11/25 07:19:21;;;;;;;1999.90;999.90;;;7.80;99.90;;;;;;6738655;77;20963;-77
2022/11/25 07:29:23;;;;;;;1999.90;999.90;;;7.90;99.90;;;;;;6729308;88;20181;-76
2022/11/25 07:39:24;;;;;;;1999.90;999.90;;;7.80;99.90;;;;;;6731228;88;20231;-76
2022/11/25 07:49:24;;;;;;;1999.90;999.90;;;7.70;99.90;;;;;;6731926;88;20663;-76
2022/11/25 07:59:25;;;;;;;1999.90;999.90;;;7.50;99.90;;;;;;6733829;88;20183;-76
2022/11/25 08:09:25;;;;;;;1999.90;999.90;;;7.40;99.90;;;;;;6732396;88;20197;-76
2022/11/25 08:19:26;;;;;;;1999.90;999.90;;;7.50;99.90;;;;;;6731894;88;20222;-75
2022/11/25 08:29:26;;;;;;;1999.90;999.90;;;7.90;99.90;;;;;;6732929;88;20637;-76
2022/11/25 08:39:28;;;;;;;1999.90;999.90;;;8.10;99.90;;;;;;6731217;88;20775;-76
2022/11/25 08:49:29;;;;;;;1999.90;999.90;;;8.30;99.90;;;;;;6734902;88;20303;-76
2022/11/25 08:59:29;;;;;;;1999.90;999.90;;;8.60;99.90;;;;;;6740063;88;20193;-76
2022/11/25 09:09:30;;;;;;;1999.90;999.90;;;9.20;99.90;;;;;;6735519;88;20554;-76
2022/11/25 09:19:30;;;;;;;1999.90;999.90;;;9.80;99.90;;;;;;6734389;88;20209;-76
2022/11/25 09:29:31;;;;;;;1999.90;999.90;;;10.10;99.90;;;;;;6734294;88;20319;-76
2022/11/25 09:39:33;;;;;;;1999.90;999.90;;;10.40;99.90;;;;;;6734266;88;20264;-76
2022/11/25 09:49:50;;;;;;;1999.90;999.90;;;10.90;99.90;;;;;;6734511;88;20184;-76
2022/11/25 10:00:06;;;;;;;1999.90;999.90;;;11.40;99.90;;;;;;6733474;88;20670;-76
2022/11/25 10:10:17;;;;;;;1999.90;999.90;;;12.10;99.90;;;;;;6730479;88;20627;-76
2022/11/25 10:20:32;;;;;;;1999.90;999.90;;;13.10;99.90;;;;;;6717820;88;20212;-76
2022/11/25 10:30:41;;;;;;;1999.90;999.90;;;13.70;99.90;;;;;;6734252;88;20221;-77
2022/11/25 10:40:45;;;;;;;1999.90;999.90;;;13.40;99.90;;;;;;6733329;88;20259;-76
2022/11/25 10:51:38;;;;;;;1999.90;999.90;;;13.70;99.90;;;;;;6733541;88;20189;-77
2022/11/25 11:01:39;;;;;;;1999.90;999.90;;;14.10;99.90;;;;;;6721911;88;20693;-76
2022/11/25 11:11:48;;;;;;;1999.90;999.90;;;14.20;99.90;;;;;;6732012;88;20282;-77
2022/11/25 11:21:49;;;;;;;1999.90;999.90;;;14.90;99.90;;;;;;6715042;88;20323;-76
2022/11/25 11:31:58;;;;;;;1999.90;999.90;;;15.50;99.90;;;;;;6732214;88;20241;-77
2022/11/25 11:42:12;;;;;;;1999.90;999.90;;;13.90;99.90;;;;;;6741955;88;20214;-76
2022/11/25 11:52:43;;;;;;;1999.90;999.90;;;13.50;99.90;;;;;;6728160;88;20192;-76
2022/11/25 12:02:53;;;;;;;1999.90;999.90;;;13.10;99.90;;;;;;6731835;88;20262;-77
2022/11/25 12:13:10;;;;;;;1999.90;999.90;;;13.30;99.90;;;;;;6727196;88;20323;-76
2022/11/25 12:23:25;;;;;;;1999.90;999.90;;;14.20;99.90;;;;;;6716758;88;20256;-77
2022/11/25 12:33:38;;;;;;;1999.90;999.90;;;13.80;99.90;;;;;;6731045;88;20169;-76
2022/11/25 12:43:51;;;;;;;1999.90;999.90;;;13.20;99.90;;;;;;6734382;88;20651;-76
2022/11/25 12:54:07;;;;;;;1999.90;999.90;;;13.10;99.90;;;;;;6730167;88;20194;-76
2022/11/25 13:04:45;;;;;;;1999.90;999.90;;;13.30;99.90;;;;;;6725468;88;20332;-77
2022/11/25 13:15:03;;;;;;;1999.90;999.90;;;13.20;99.90;;;;;;6733486;76;20244;-74
2022/11/25 13:25:23;;;;;;;1999.90;999.90;;;14.00;99.90;;;;;;6714269;88;20205;-74
2022/11/25 13:35:33;;;;;;;1999.90;999.90;;;13.30;99.90;;;;;;6718268;88;21008;-73
2022/11/25 13:45:43;;;;;;;1999.90;999.90;;;13.00;99.90;;;;;;6713997;88;20377;-74
2022/11/25 13:55:45;;;;;;;1999.90;999.90;;;13.40;99.90;;;;;;6722268;88;20226;-75
2022/11/25 14:06:28;;;;;;;1999.90;999.90;;;14.00;99.90;;;;;;6714532;88;20314;-75
2022/11/25 14:16:46;;;;;;;1999.90;999.90;;;13.30;99.90;;;;;;6711941;88;20280;-74
2022/11/25 14:26:50;;;;;;;1999.90;999.90;;;12.90;99.90;;;;;;6714002;88;20186;-74
2022/11/25 14:37:00;;;;;;;1999.90;999.90;;;12.70;99.90;;;;;;6714738;88;20317;-75
2022/11/25 14:47:04;;;;;;;1999.90;999.90;;;12.50;99.90;;;;;;6716051;88;20640;-74
2022/11/25 14:57:04;;;;;;;1999.90;999.90;;;12.40;99.90;;;;;;6718157;88;20677;-75
2022/11/25 15:07:17;;;;;;;1999.90;999.90;;;12.20;99.90;;;;;;6724482;88;20200;-76
2022/11/25 15:17:34;;;;;;;1999.90;999.90;;;12.00;99.90;;;;;;6730036;88;20248;-75
2022/11/25 15:27:48;;;;;;;1999.90;999.90;;;11.80;99.90;;;;;;6723479;88;20214;-74
2022/11/25 15:37:50;;;;;;;1999.90;999.90;;;11.50;99.90;;;;;;6713796;88;20205;-75
2022/11/25 15:47:50;;;;;;;1999.90;999.90;;;11.10;99.90;;;;;;6715078;88;20229;-74
2022/11/25 15:57:52;;;;;;;1999.90;999.90;;;10.90;99.90;;;;;;6712604;88;20337;-74
2022/11/25 16:07:56;;;;;;;1999.90;999.90;;;10.80;99.90;;;;;;6717783;88;20298;-75
2022/11/25 16:17:56;;;;;;;1999.90;999.90;;;10.70;99.90;;;;;;6719935;88;20205;-74
2022/11/25 16:27:59;;;;;;;1999.90;999.90;;;10.70;99.90;;;;;;6715092;88;20178;-74
2022/11/25 16:38:00;;;;;;;1999.90;999.90;;;10.60;99.90;;;;;;6716095;88;20231;-75
2022/11/25 16:48:00;;;;;;;1999.90;999.90;;;10.80;99.90;;;;;;6724563;88;20713;-74
2022/11/25 16:58:01;;;;;;;1999.90;999.90;;;10.80;99.90;;;;;;6717292;88;20189;-74
2022/11/25 17:08:01;;;;;;;1999.90;999.90;;;10.70;99.90;;;;;;6713307;88;20211;-75
2022/11/25 17:18:05;;;;;;;1999.90;999.90;;;10.60;99.90;;;;;;6718300;88;20277;-73
2022/11/25 17:28:08;;;;;;;1999.90;999.90;;;10.40;99.90;;;;;;6715987;88;20319;-73
2022/11/25 17:38:16;;;;;;;1999.90;999.90;;;10.40;99.90;;;;;;6715738;88;20719;-76
2022/11/25 17:48:17;;;;;;;1999.90;999.90;;;10.10;99.90;;;;;;6711534;88;20210;-75
2022/11/25 17:58:19;;;;;;;1999.90;999.90;;;9.80;99.90;;;;;;6711181;88;20191;-75
2022/11/25 18:08:19;;;;;;;1999.90;999.90;;;9.70;99.90;;;;;;6713777;88;20249;-74
2022/11/25 18:18:23;;;;;;;1999.90;999.90;;;9.80;99.90;;;;;;6714042;88;20181;-75
2022/11/25 18:28:26;;;;;;;1999.90;999.90;;;9.90;99.90;;;;;;6712300;88;20211;-76
2022/11/25 18:38:26;;;;;;;1999.90;999.90;;;9.90;99.90;;;;;;6710167;88;20228;-75
2022/11/25 18:48:27;;;;;;;1999.90;999.90;;;9.90;99.90;;;;;;6708640;88;20826;-75
2022/11/25 18:58:27;;;;;;;1999.90;999.90;;;10.00;99.90;;;;;;6712511;88;20246;-75
2022/11/25 19:08:28;;;;;;;1999.90;999.90;;;9.80;99.90;;;;;;6705232;88;20543;-74
2022/11/25 19:18:29;;;;;;;1999.90;999.90;;;9.80;99.90;;;;;;6727069;77;20498;-77
2022/11/25 19:28:30;;;;;;;1999.90;999.90;;;9.80;99.90;;;;;;6736740;88;20245;-78
2022/11/25 19:38:31;;;;;;;1999.90;999.90;;;9.80;99.90;;;;;;6737287;88;20243;-78
2022/11/25 19:48:37;;;;;;;1999.90;999.90;;;9.70;99.90;;;;;;6735682;88;20251;-78
2022/11/25 19:58:38;;;;;;;1999.90;999.90;;;9.70;99.90;;;;;;6737233;88;20180;-78
2022/11/25 20:08:38;;;;;;;1999.90;999.90;;;9.60;99.90;;;;;;6737048;88;20205;-79
2022/11/25 20:18:39;;;;;;;1999.90;999.90;;;9.50;99.90;;;;;;6735828;88;20177;-78
2022/11/25 20:28:39;;;;;;;1999.90;999.90;;;9.40;99.90;;;;;;6741809;88;20765;-79
2022/11/25 20:38:48;;;;;;;1999.90;999.90;;;9.20;99.90;;;;;;6748195;88;20600;-79
2022/11/25 20:48:52;;;;;;;1999.90;999.90;;;9.30;99.90;;;;;;6743616;88;20210;-78
2022/11/25 20:58:53;;;;;;;1999.90;999.90;;;9.00;99.90;;;;;;6746695;88;20188;-78
2022/11/25 21:08:57;;;;;;;1999.90;999.90;;;8.80;99.90;;;;;;6741861;88;20257;-78
2022/11/25 21:18:57;;;;;;;1999.90;999.90;;;8.80;99.90;;;;;;6743020;88;20208;-79
2022/11/25 21:28:58;;;;;;;1999.90;999.90;;;8.60;99.90;;;;;;6741595;88;20764;-79
2022/11/25 21:39:06;;;;;;;1999.90;999.90;;;8.30;99.90;;;;;;6748754;88;20215;-78
2022/11/25 21:49:10;;;;;;;1999.90;999.90;;;8.20;99.90;;;;;;6743280;88;20235;-79
2022/11/25 21:59:19;;;;;;;1999.90;999.90;;;8.20;99.90;;;;;;6741370;88;20316;-78
2022/11/25 22:09:19;;;;;;;1999.90;999.90;;;8.20;99.90;;;;;;6742898;88;20252;-78
2022/11/25 22:19:22;;;;;;;1999.90;999.90;;;8.00;99.90;;;;;;6755074;88;20712;-78
2022/11/25 22:29:28;;;;;;;1999.90;999.90;;;8.20;99.90;;;;;;6737461;88;20336;-78
2022/11/25 22:39:28;;;;;;;1999.90;999.90;;;8.00;99.90;;;;;;6736897;88;20204;-78
2022/11/25 22:49:39;;;;;;;1999.90;999.90;;;7.80;99.90;;;;;;6736283;88;20312;-78
2022/11/25 22:59:39;;;;;;;1999.90;999.90;;;7.90;99.90;;;;;;6744008;88;20198;-78
2022/11/25 23:09:41;;;;;;;1999.90;999.90;;;7.70;99.90;;;;;;6739657;88;20193;-78
2022/11/25 23:19:41;;;;;;;1999.90;999.90;;;7.60;99.90;;;;;;6739790;88;20211;-78
2022/11/25 23:29:43;;;;;;;1999.90;999.90;;;7.70;99.90;;;;;;6742607;88;20204;-77
2022/11/25 23:39:52;;;;;;;1999.90;999.90;;;7.70;99.90;;;;;;6747798;88;20275;-78
2022/11/25 23:49:56;;;;;;;1999.90;999.90;;;7.50;99.90;;;;;;6741194;88;20314;-77
2022/11/25 23:59:56;;;;;;;1999.90;999.90;;;7.50;99.90;;;;;;6744748;88;20178;-76
